Aérodrome :
LOGIN :

S'inscrire | Disclaimer

   EN    FR    IT 

 










Légende :    VFR   VFR Marginal   IFR   IFR Intensif   IFR Très Intensif
Visi : 
Plafond : 
>= 8 km
>= 3000ft
5 à 8 km
1000 à 3000 ft
1500m à 5 km
500 à 1000 ft
800 à 1500m
200 à 500 ft
< 800m
< 200 ft
Symboles :   Orages  Brouillard  Fortes neiges  Fortes précipitations  Vent > 20 kt
SIGMETs :   Divers  Orages  Givrage  Turbulence  Onde Orograph.  Cendres Volcan.






- Altitude de l'aérodrome : 392 ft
- Code IATA : CDG


LFPG - Paris-Aeroport Charles De Gaulle

DERNIER METAR :
  • 091830Z 02008KT 350V110 4000 BR FEW003 BKN004 01/00 Q1007 NOSIG

METARs EXPIRÉS :
  • 091800Z VRB06KT 4500 BR FEW003 BKN004 01/00 Q1006 NOSIG
  • 091730Z 01008KT 4500 BR BKN004 01/00 Q1006 NOSIG
  • 091700Z 01007KT 320V120 4000 BR BKN003 01/00 Q1006 NOSIG
  • 091630Z VRB06KT 4000 1100NE R27L/1300U R09R/P2000 R26R/P2000 R08L/P2000 R26L/P2000 R08R/1400D R27R/P2000 R09L/P2000 BR FEW000 BKN004 01/00 Q1006 NOSIG
  • 091600Z 01005KT 350V140 4000 1700NE R27L/1400D BR FEW000 01/M00 Q1006 NOSIG

TAF TAF LFPG
Valide du 09 à 18h jusqu'au 11 à 00h UTC


091700Z 0918/1024 36005KT 5000 BR BKN003 TX02/1015Z TNM01/1000Z
BECMG 0918/0920 2000 BR
PROB40
TEMPO 0918/1008 0600 FG BKN001
PROB30
TEMPO 0923/1008 FZFG
BECMG 1011/1013 8000 NSW BKN012
BECMG 1020/1022 3000 BR BKN005
ATIS : +33 1 48 62 10 92



MET'MAP, la Météo Aéronautique d'un coup d'oeil ! - Copyright ORBIFLY Décembre 2007 - Disclaimer

ORBIFLY MET'MAP TEAM :

Programmation & Développement : Alexandra Zaïnal
Sur une idée originale de : Baudouin d'Aumeries
Soutien technique & logistique : Manuel Goepfert
Assistance : Marc-Olivier Méhu




SOURCES & CREDITS :

   NOAA